Time;durP1;ratioP1;P1;durP2;ratioP2;P2;SDS_P1;SDS_P2;PMS_P1;PMS_P2;Temp;Humidity;BMP_temperature;BMP_pressure;BME280_temperature;BME280_humidity;BME280_pressure;Samples;Min_cycle;Max_cycle;Signal;HPM_P1;HPM_P2
2022/11/18 00:01:12;;;;;;;14.30;9.70;;;;;;;1.95;85.72;99443.42;1680136;85;21030;-76
2022/11/18 00:03:42;;;;;;;14.40;9.23;;;;;;;1.95;85.72;99447.30;1680561;85;21498;-76
2022/11/18 00:06:14;;;;;;;12.53;8.95;;;;;;;1.92;85.52;99445.61;1680299;85;21046;-76
2022/11/18 00:08:41;;;;;;;13.23;9.10;;;;;;;1.91;85.75;99441.34;1679429;85;21034;-76
2022/11/18 00:11:11;;;;;;;14.67;9.50;;;;;;;1.95;85.92;99432.64;1680203;85;21536;-76
2022/11/18 00:16:26;;;;;;;13.03;9.93;;;;;;;1.91;85.41;99433.59;1680258;85;21014;-76
2022/11/18 00:18:53;;;;;;;15.17;9.97;;;;;;;1.90;85.51;99438.77;1680548;85;21021;-76
2022/11/18 00:21:20;;;;;;;13.80;9.50;;;;;;;1.84;85.42;99439.72;1680161;85;21515;-76
2022/11/18 00:23:48;;;;;;;13.23;9.90;;;;;;;1.82;85.72;99446.64;1680453;85;21122;-76
2022/11/18 00:26:15;;;;;;;13.53;9.50;;;;;;;1.82;85.45;99448.38;1680110;85;21038;-76
2022/11/18 00:28:42;;;;;;;14.00;10.27;;;;;;;1.75;85.47;99443.77;1680476;85;21066;-76
2022/11/18 00:31:13;;;;;;;15.37;10.70;;;;;;;1.77;85.55;99432.94;1679146;84;21034;-76
2022/11/18 00:33:40;;;;;;;15.70;10.80;;;;;;;1.77;85.61;99432.53;1699571;83;21388;-76
2022/11/18 00:36:11;;;;;;;14.60;11.00;;;;;;;1.77;85.60;99432.94;1669736;85;21142;-76
2022/11/18 00:38:39;;;;;;;14.77;10.50;;;;;;;1.77;85.55;99428.65;1653454;85;21082;-76
2022/11/18 00:41:11;;;;;;;14.67;10.33;;;;;;;1.73;85.60;99430.86;1669750;85;21397;-76
2022/11/18 00:43:38;;;;;;;18.97;11.20;;;;;;;1.74;85.78;99422.66;1669737;85;21067;-76
2022/11/18 00:46:08;;;;;;;16.13;9.90;;;;;;;1.76;85.60;99425.63;1669813;85;21501;-76
2022/11/18 00:48:36;;;;;;;15.15;10.70;;;;;;;1.74;85.61;99424.80;1699778;84;21116;-76
2022/11/18 00:51:17;;;;;;;13.80;10.13;;;;;;;1.75;85.67;99418.77;1699485;84;20988;-76
2022/11/18 00:53:44;;;;;;;15.70;10.30;;;;;;;1.74;85.65;99417.05;1699554;84;21099;-76
2022/11/18 00:56:12;;;;;;;14.17;10.17;;;;;;;1.67;85.38;99414.17;1699737;84;20924;-76
2022/11/18 00:58:39;;;;;;;16.30;11.23;;;;;;;1.69;85.75;99411.13;1699538;84;21303;-76
2022/11/18 01:01:06;;;;;;;16.03;11.27;;;;;;;1.71;85.65;99405.92;1699679;84;21266;-76
2022/11/18 01:03:33;;;;;;;13.83;10.63;;;;;;;1.68;85.47;99406.83;1699377;84;21529;-76
2022/11/18 01:06:00;;;;;;;13.13;9.80;;;;;;;1.66;85.40;99412.89;1703123;83;21037;-76
2022/11/18 01:08:26;;;;;;;14.87;10.13;;;;;;;1.65;85.71;99404.74;1704976;83;21627;-76
2022/11/18 01:10:53;;;;;;;15.07;11.27;;;;;;;1.67;85.77;99403.84;1705352;83;21515;-76
2022/11/18 01:13:23;;;;;;;15.10;10.67;;;;;;;1.67;85.48;99410.74;1717312;82;22263;-76
2022/11/18 01:15:56;;;;;;;14.63;10.27;;;;;;;1.58;85.21;99410.46;1717516;82;20992;-76
2022/11/18 01:18:30;;;;;;;17.03;11.03;;;;;;;1.54;85.32;99414.80;1717198;82;20927;-76
2022/11/18 01:21:01;;;;;;;15.53;10.73;;;;;;;1.56;85.39;99416.08;1717655;82;21528;-76
2022/11/18 01:23:29;;;;;;;15.13;10.57;;;;;;;1.55;85.54;99410.07;1717263;82;21091;-76
2022/11/18 01:25:56;;;;;;;15.47;10.77;;;;;;;1.54;85.48;99419.97;1717537;82;21096;-76
2022/11/18 01:28:23;;;;;;;14.73;10.97;;;;;;;1.55;85.69;99417.81;1717308;82;21572;-76
2022/11/18 01:30:50;;;;;;;15.93;10.43;;;;;;;1.54;85.45;99414.80;1717212;82;21087;-76
2022/11/18 01:33:17;;;;;;;15.73;11.00;;;;;;;1.52;85.37;99410.12;1717499;82;21036;-76
2022/11/18 01:35:44;;;;;;;15.67;11.23;;;;;;;1.52;85.46;99414.00;1717485;82;21015;-76
2022/11/18 01:38:13;;;;;;;14.47;10.93;;;;;;;1.47;85.32;99411.05;1717498;82;21292;-76
2022/11/18 01:40:40;;;;;;;15.53;11.03;;;;;;;1.43;85.31;99415.41;1719136;82;21015;-77
2022/11/18 01:43:18;;;;;;;14.63;11.40;;;;;;;1.39;85.40;99407.31;1722482;82;21465;-76
2022/11/18 01:45:48;;;;;;;14.57;10.80;;;;;;;1.40;85.47;99411.59;1718947;82;21281;-76
2022/11/18 01:48:28;;;;;;;15.03;10.43;;;;;;;1.40;85.56;99409.45;1717727;82;21490;-76
2022/11/18 01:51:12;;;;;;;15.08;10.82;;;;;;;1.45;85.75;99409.80;1717457;82;21124;-76
2022/11/18 01:53:51;;;;;;;14.40;10.60;;;;;;;1.50;85.96;99412.31;1717606;82;21573;-76
2022/11/18 01:56:29;;;;;;;18.27;11.90;;;;;;;1.53;85.74;99407.95;1717572;82;21030;-76
2022/11/18 01:59:03;;;;;;;16.40;11.57;;;;;;;1.46;85.38;99411.93;1717369;82;21034;-75
2022/11/18 02:01:30;;;;;;;15.67;11.20;;;;;;;1.43;85.35;99405.53;1719906;82;20996;-75
2022/11/18 02:03:58;;;;;;;16.10;11.43;;;;;;;1.37;85.21;99409.50;1725389;82;21485;-76
2022/11/18 02:06:25;;;;;;;15.40;11.17;;;;;;;1.38;85.58;99409.46;1718400;82;21573;-76
2022/11/18 02:08:52;;;;;;;16.13;11.93;;;;;;;1.39;85.47;99405.18;1717481;82;21003;-76
2022/11/18 02:14:08;;;;;;;18.37;12.10;;;;;;;1.42;85.59;99403.39;1717457;82;21023;-76
2022/11/18 02:16:44;;;;;;;17.13;12.07;;;;;;;1.39;85.39;99403.89;1717688;82;21544;-76
2022/11/18 02:19:50;;;;;;;18.10;12.77;;;;;;;1.33;85.20;99400.93;1717399;82;21003;-76
2022/11/18 02:22:45;;;;;;;15.23;12.00;;;;;;;1.27;85.31;99401.88;1717820;82;20939;-76
2022/11/18 02:25:37;;;;;;;19.37;12.20;;;;;;;1.30;85.43;99403.16;1717528;82;21066;-76
2022/11/18 02:28:51;;;;;;;18.83;12.50;;;;;;;1.35;85.97;99394.02;1717714;82;21014;-76
2022/11/18 02:31:33;;;;;;;16.53;12.87;;;;;;;1.33;85.40;99395.36;1662959;84;21131;-76
2022/11/18 02:34:31;;;;;;;19.47;13.80;;;;;;;1.32;85.52;99397.95;1695000;83;20938;-76
2022/11/18 02:37:15;;;;;;;15.97;12.97;;;;;;;1.31;85.30;99398.83;1692854;84;21494;-76
2022/11/18 02:40:15;;;;;;;16.83;12.47;;;;;;;1.21;85.07;99402.42;1703998;83;20996;-76
2022/11/18 02:42:45;;;;;;;20.47;12.83;;;;;;;1.20;85.43;99409.77;1695655;83;21495;-76
2022/11/18 02:45:16;;;;;;;19.87;13.05;;;;;;;1.21;85.42;99405.85;1705261;83;22183;-76
2022/11/18 02:47:46;;;;;;;18.97;13.80;;;;;;;1.22;85.52;99401.53;1705356;84;21058;-76
2022/11/18 02:50:18;;;;;;;18.10;13.00;;;;;;;1.19;85.22;99399.88;1705397;83;21481;-76
2022/11/18 02:52:47;;;;;;;19.03;13.37;;;;;;;1.14;85.03;99404.25;1705517;83;21527;-76
2022/11/18 02:55:16;;;;;;;19.30;13.47;;;;;;;1.09;85.11;99396.56;1705167;83;21034;-76
2022/11/18 02:57:45;;;;;;;18.10;13.57;;;;;;;1.08;85.17;99394.88;1685948;83;21982;-76
2022/11/18 03:00:13;;;;;;;20.47;14.13;;;;;;;1.06;85.23;99385.00;1705148;83;21027;-76
2022/11/18 03:02:45;;;;;;;19.43;14.17;;;;;;;1.10;85.63;99386.65;1705508;83;21015;-76
2022/11/18 03:05:38;;;;;;;17.93;13.67;;;;;;;1.10;85.31;99382.78;1705202;83;20995;-76
2022/11/18 03:08:10;;;;;;;19.03;14.13;;;;;;;1.08;85.25;99375.52;1705422;83;21486;-76
2022/11/18 03:10:51;;;;;;;20.90;15.13;;;;;;;1.08;85.29;99379.39;1678717;84;21043;-75
2022/11/18 03:13:27;;;;;;;;;;;;;;;1.07;85.13;99381.98;1707905;83;21023;-75
2022/11/18 03:16:05;;;;;;;21.13;15.83;;;;;;;1.03;84.87;99378.60;1705221;83;20148;-75
2022/11/18 03:18:37;;;;;;;20.10;14.43;;;;;;;0.95;84.75;99382.17;1705496;83;21078;-75
2022/11/18 03:21:13;;;;;;;19.90;14.57;;;;;;;0.90;84.91;99378.36;1705530;83;21006;-75
2022/11/18 03:24:11;;;;;;;21.40;15.53;;;;;;;0.92;85.14;99377.91;1704864;83;22228;-75
2022/11/18 03:26:41;;;;;;;23.07;15.90;;;;;;;0.89;84.98;99371.50;1664260;85;21089;-75
2022/11/18 03:29:13;;;;;;;21.57;16.93;;;;;;;0.86;84.92;99371.11;1620859;87;21036;-76
2022/11/18 03:31:52;;;;;;;22.50;17.40;;;;;;;0.81;84.72;99377.20;1666227;85;21363;-76
2022/11/18 03:34:33;;;;;;;21.57;15.27;;;;;;;0.74;84.67;99378.15;1668452;84;21057;-75
2022/11/18 03:37:03;;;;;;;23.33;17.47;;;;;;;0.74;84.93;99381.58;1669112;84;22458;-75
2022/11/18 03:39:34;;;;;;;26.50;17.27;;;;;;;0.69;84.65;99380.78;1669441;84;20939;-76
2022/11/18 03:42:07;;;;;;;;;;;;;;;0.64;84.56;99396.78;1671620;84;21492;-76
2022/11/18 03:44:39;;;;;;;27.33;18.43;;;;;;;0.59;84.52;99400.69;1669333;84;20149;-75
2022/11/18 03:47:14;;;;;;;26.30;19.40;;;;;;;0.56;84.66;99403.31;1669163;84;21101;-76
2022/11/18 03:49:52;;;;;;;24.57;18.63;;;;;;;0.56;84.64;99404.60;1668884;84;21776;-76
2022/11/18 03:52:24;;;;;;;29.93;20.80;;;;;;;0.53;84.66;99408.95;1669000;84;21558;-77
2022/11/18 03:54:54;;;;;;;31.53;21.20;;;;;;;0.55;84.63;99404.61;1669294;84;21098;-76
2022/11/18 03:57:27;;;;;;;30.23;21.63;;;;;;;0.57;84.84;99404.16;1668977;84;21070;-76
2022/11/18 04:00:10;;;;;;;30.57;21.07;;;;;;;0.56;84.51;99397.31;1668844;84;21057;-76
2022/11/18 04:02:38;;;;;;;30.70;22.00;;;;;;;0.52;84.26;99405.49;1675019;83;21933;-77
2022/11/18 04:05:12;;;;;;;29.60;22.10;;;;;;;0.47;84.13;99409.84;1710444;82;21067;-76
2022/11/18 04:07:56;;;;;;;31.93;22.67;;;;;;;0.45;84.17;99405.17;1710219;82;21027;-76
2022/11/18 04:10:39;;;;;;;33.67;22.43;;;;;;;0.41;84.10;99413.35;1710554;82;21441;-76
2022/11/18 04:13:15;;;;;;;31.53;23.30;;;;;;;0.39;84.10;99402.67;1710406;82;21015;-76
2022/11/18 04:15:42;;;;;;;33.17;22.60;;;;;;;0.38;84.17;99403.52;1710257;82;21099;-76
2022/11/18 04:18:10;;;;;;;34.90;22.77;;;;;;;0.35;83.94;99405.70;1710130;82;21022;-76
2022/11/18 04:20:38;;;;;;;35.27;25.27;;;;;;;0.31;83.94;99404.05;1710520;82;21027;-76
2022/11/18 04:23:06;;;;;;;35.10;24.60;;;;;;;0.32;83.85;99399.73;1710184;82;21508;-76
2022/11/18 04:25:33;;;;;;;36.23;24.30;;;;;;;0.28;83.89;99401.91;1710638;82;21275;-76
2022/11/18 04:28:01;;;;;;;38.33;26.30;;;;;;;0.27;83.98;99402.35;1710423;82;21123;-76
2022/11/18 04:30:28;;;;;;;40.40;26.83;;;;;;;0.34;84.43;99400.14;1710308;82;21070;-76
2022/11/18 04:32:55;;;;;;;42.53;28.87;;;;;;;0.35;84.09;99397.12;1710403;82;21023;-76
2022/11/18 04:35:22;;;;;;;41.90;29.20;;;;;;;0.30;83.82;99411.34;1710713;82;20999;-76
2022/11/18 04:37:49;;;;;;;40.70;29.50;;;;;;;0.27;83.71;99407.95;1710715;82;21027;-76
2022/11/18 04:40:16;;;;;;;41.10;28.87;;;;;;;0.23;83.68;99405.84;1710692;82;21106;-75
2022/11/18 04:42:43;;;;;;;45.63;29.30;;;;;;;0.22;83.75;99407.98;1710560;82;21023;-76
2022/11/18 04:45:11;;;;;;;49.77;32.10;;;;;;;0.22;83.82;99398.97;1710687;82;21019;-76
2022/11/18 04:47:38;;;;;;;45.50;30.77;;;;;;;0.24;83.93;99406.25;1710457;82;21016;-76
2022/11/18 04:50:06;;;;;;;43.63;29.33;;;;;;;0.25;83.89;99398.08;1705198;82;21027;-76
2022/11/18 04:52:33;;;;;;;46.00;31.50;;;;;;;0.25;83.76;99407.98;1710575;82;21107;-76
2022/11/18 04:55:00;;;;;;;40.77;29.17;;;;;;;0.19;83.43;99411.89;1710601;82;21023;-76
2022/11/18 04:57:27;;;;;;;39.57;28.73;;;;;;;0.13;83.41;99407.66;1710624;82;21004;-76
2022/11/18 04:59:54;;;;;;;42.63;30.47;;;;;;;0.13;83.45;99420.98;1710962;82;21019;-76
2022/11/18 05:02:21;;;;;;;49.23;33.40;;;;;;;0.09;83.49;99425.32;1710634;82;21573;-76
2022/11/18 05:04:47;;;;;;;69.50;36.50;;;;;;;0.05;83.44;99428.78;1710883;82;21094;-76
2022/11/18 05:07:15;;;;;;;51.10;31.33;;;;;;;0.07;83.62;99424.91;1710535;82;22027;-76
2022/11/18 05:09:42;;;;;;;48.63;32.67;;;;;;;0.01;83.16;99428.84;1710717;82;21522;-76
2022/11/18 05:15:00;;;;;;;50.17;33.13;;;;;;;-0.06;83.27;99427.59;1711048;82;21016;-76
2022/11/18 05:17:27;;;;;;;50.47;34.97;;;;;;;-0.09;83.15;99437.93;1710610;82;21218;-77
2022/11/18 05:19:54;;;;;;;49.73;32.47;;;;;;;-0.12;83.26;99433.25;1710855;82;21011;-76
2022/11/18 05:22:21;;;;;;;51.00;34.47;;;;;;;-0.15;83.33;99437.14;1710949;82;20920;-76
2022/11/18 05:24:48;;;;;;;47.53;31.43;;;;;;;-0.15;83.42;99430.70;1710661;82;21035;-76
2022/11/18 05:27:16;;;;;;;69.83;43.20;;;;;;;-0.15;83.37;99435.86;1710816;82;21036;-76
2022/11/18 05:29:43;;;;;;;44.10;30.93;;;;;;;-0.16;83.35;99440.60;1710873;82;21015;-76
2022/11/18 05:32:10;;;;;;;47.27;31.47;;;;;;;-0.16;83.39;99445.31;1710599;82;21015;-76
2022/11/18 05:34:40;;;;;;;42.53;29.37;;;;;;;-0.11;83.86;99442.67;1710603;82;21015;-75
2022/11/18 05:37:07;;;;;;;45.53;29.83;;;;;;;-0.08;83.82;99444.81;1710628;82;21087;-76
2022/11/18 05:39:34;;;;;;;42.03;29.63;;;;;;;-0.06;83.68;99452.06;1710592;82;20980;-76
2022/11/18 05:44:50;;;;;;;46.90;29.73;;;;;;;-0.12;83.13;99447.41;1710610;82;21438;-75
2022/11/18 05:47:18;;;;;;;42.83;28.87;;;;;;;-0.17;83.02;99455.61;1710515;82;21086;-75
2022/11/18 05:49:45;;;;;;;40.53;27.03;;;;;;;-0.18;83.08;99461.64;1710595;82;21031;-76
2022/11/18 05:52:12;;;;;;;40.10;27.00;;;;;;;-0.17;83.55;99471.91;1710658;82;21059;-75
2022/11/18 05:54:43;;;;;;;39.80;28.27;;;;;;;-0.16;83.29;99471.06;1710599;82;21138;-75
2022/11/18 05:57:10;;;;;;;41.27;26.33;;;;;;;-0.19;83.18;99471.50;1710542;82;21008;-75
2022/11/18 05:59:37;;;;;;;42.43;27.90;;;;;;;-0.17;83.24;99473.64;1710645;82;21058;-75
2022/11/18 06:02:09;;;;;;;38.53;27.07;;;;;;;-0.19;83.32;99483.09;1710878;82;21043;-75
2022/11/18 06:04:54;;;;;;;45.17;28.20;;;;;;;-0.17;83.15;99477.06;1710213;82;21051;-76
2022/11/18 06:07:32;;;;;;;37.13;26.47;;;;;;;-0.25;82.87;99486.57;1710725;82;21116;-76
2022/11/18 06:10:01;;;;;;;42.07;26.30;;;;;;;-0.28;83.08;99484.02;1710638;82;21540;-75
2022/11/18 06:12:32;;;;;;;39.90;27.00;;;;;;;-0.31;83.09;99490.05;1710767;82;21023;-75
2022/11/18 06:15:10;;;;;;;39.00;26.70;;;;;;;-0.29;83.28;99493.91;1710449;82;21038;-76
2022/11/18 06:17:41;;;;;;;40.20;27.07;;;;;;;-0.21;83.52;99501.15;1693881;84;21489;-75
2022/11/18 06:20:09;;;;;;;36.93;26.60;;;;;;;-0.24;83.30;99495.59;1719682;82;21996;-76
2022/11/18 06:22:37;;;;;;;40.90;27.80;;;;;;;-0.21;83.34;99495.16;1721171;82;20971;-77
2022/11/18 06:25:04;;;;;;;40.13;27.00;;;;;;;-0.21;83.18;99507.59;1686360;84;21045;-74
2022/11/18 06:27:31;;;;;;;40.57;27.10;;;;;;;-0.28;82.90;99508.08;1721059;82;21049;-74
2022/11/18 06:29:58;;;;;;;39.13;26.20;;;;;;;-0.30;82.93;99519.25;1686886;84;21309;-75
2022/11/18 06:32:25;;;;;;;38.67;26.13;;;;;;;-0.36;82.93;99517.58;1717676;82;21110;-75
2022/11/18 06:34:52;;;;;;;37.80;25.30;;;;;;;-0.35;83.02;99521.00;1717764;82;21390;-75
2022/11/18 06:37:19;;;;;;;35.53;23.43;;;;;;;-0.35;83.02;99521.00;1717969;82;21019;-74
2022/11/18 06:39:46;;;;;;;38.03;24.10;;;;;;;-0.31;83.49;99523.96;1720148;82;21027;-75
2022/11/18 06:45:00;;;;;;;35.50;22.47;;;;;;;-0.24;83.05;99531.64;1693246;84;21164;-74
2022/11/18 06:47:28;;;;;;;34.73;22.80;;;;;;;-0.34;82.60;99532.56;1675230;84;21030;-75
2022/11/18 06:49:55;;;;;;;35.27;22.40;;;;;;;-0.32;82.79;99539.00;1718112;82;21743;-74
2022/11/18 06:52:23;;;;;;;32.27;21.03;;;;;;;-0.31;82.75;99538.13;1679007;84;21033;-75
2022/11/18 06:54:50;;;;;;;32.07;21.87;;;;;;;-0.31;82.83;99538.97;1687980;84;21584;-74
2022/11/18 06:57:18;;;;;;;31.40;21.93;;;;;;;-0.26;82.81;99542.81;1717364;82;21253;-74
2022/11/18 06:59:45;;;;;;;34.03;22.23;;;;;;;-0.28;82.58;99546.70;1717749;82;20943;-75
2022/11/18 07:02:12;;;;;;;30.30;20.90;;;;;;;-0.29;82.47;99549.28;1719729;82;20930;-75
2022/11/18 07:04:40;;;;;;;33.03;22.37;;;;;;;-0.32;82.44;99550.15;1718149;82;21504;-75
2022/11/18 07:07:07;;;;;;;31.10;21.70;;;;;;;-0.30;82.46;99552.73;1717509;82;21019;-74
2022/11/18 07:09:35;;;;;;;32.30;21.60;;;;;;;-0.29;82.54;99559.14;1688444;84;21958;-75
2022/11/18 07:12:03;;;;;;;32.30;22.23;;;;;;;-0.26;82.44;99560.41;1717429;83;21573;-75
2022/11/18 07:14:31;;;;;;;32.57;21.27;;;;;;;-0.24;82.58;99559.97;1722407;82;21013;-75
2022/11/18 07:16:58;;;;;;;33.87;21.93;;;;;;;-0.14;83.05;99554.34;1719119;82;21018;-74
2022/11/18 07:19:24;;;;;;;36.60;23.03;;;;;;;-0.07;82.70;99557.70;1720448;82;21043;-74
2022/11/18 07:21:52;;;;;;;36.60;23.67;;;;;;;-0.09;82.36;99555.12;1676628;84;21958;-75
2022/11/18 07:24:19;;;;;;;34.80;23.40;;;;;;;-0.07;82.26;99555.98;1718713;82;21071;-75
2022/11/18 07:26:46;;;;;;;35.73;24.83;;;;;;;-0.02;82.73;99554.23;1718949;82;21085;-74
2022/11/18 07:29:12;;;;;;;35.70;23.60;;;;;;;-0.05;82.04;99553.41;1719549;82;21031;-74
2022/11/18 07:31:39;;;;;;;39.57;25.17;;;;;;;-0.12;81.71;99555.59;1720085;82;21256;-73
2022/11/18 07:34:07;;;;;;;33.63;24.53;;;;;;;-0.15;81.70;99562.06;1685107;84;21119;-75
2022/11/18 07:36:34;;;;;;;35.97;25.33;;;;;;;-0.15;81.76;99565.92;1689514;84;21046;-74
2022/11/18 07:39:02;;;;;;;34.37;23.37;;;;;;;-0.14;81.79;99568.50;1711499;82;21317;-74
2022/11/18 07:41:30;;;;;;;35.17;23.77;;;;;;;-0.13;81.60;99564.20;1700310;83;21034;-75
2022/11/18 07:43:59;;;;;;;33.60;22.37;;;;;;;-0.16;81.42;99568.09;1700690;83;22157;-79
2022/11/18 07:46:29;;;;;;;34.73;24.07;;;;;;;-0.21;81.24;99570.69;1708395;83;22128;-76
2022/11/18 07:48:59;;;;;;;30.70;21.50;;;;;;;-0.19;81.60;99574.52;1702380;83;21034;-72
2022/11/18 07:51:29;;;;;;;32.13;21.27;;;;;;;-0.21;81.24;99577.13;1700349;83;21033;-71
2022/11/18 07:53:56;;;;;;;30.60;19.87;;;;;;;-0.21;81.14;99569.84;1703396;83;21093;-71
2022/11/18 07:56:23;;;;;;;28.80;19.70;;;;;;;-0.24;80.87;99559.13;1705471;83;21046;-74
2022/11/18 07:58:55;;;;;;;29.53;20.13;;;;;;;-0.27;80.67;99578.02;1704758;82;21118;-73
2022/11/18 08:01:27;;;;;;;28.70;20.50;;;;;;;-0.24;80.72;99583.14;1701561;83;21539;-72
2022/11/18 08:03:53;;;;;;;27.17;19.23;;;;;;;-0.24;80.79;99565.12;1704571;83;21077;-72
2022/11/18 08:06:20;;;;;;;27.70;18.87;;;;;;;-0.18;81.10;99571.09;1700749;83;21024;-74
2022/11/18 08:08:48;;;;;;;28.20;18.40;;;;;;;-0.13;80.97;99565.48;1702975;83;21243;-73
2022/11/18 08:11:19;;;;;;;29.83;18.80;;;;;;;-0.16;80.45;99566.80;1704607;83;22042;-71
2022/11/18 08:13:45;;;;;;;;;;;;;;;-0.20;80.30;99563.81;1710314;83;21017;-71
2022/11/18 08:16:16;;;;;;;26.53;18.07;;;;;;;-0.11;80.52;99567.19;1705575;83;20153;-74
2022/11/18 08:18:44;;;;;;;25.77;17.03;;;;;;;-0.11;80.35;99565.91;1705398;83;21029;-73
2022/11/18 08:21:12;;;;;;;27.30;18.17;;;;;;;-0.10;80.36;99569.33;1707582;83;21271;-72
2022/11/18 08:23:39;;;;;;;23.53;17.20;;;;;;;-0.09;80.17;99573.60;1704755;83;21113;-73
2022/11/18 08:26:13;;;;;;;24.80;16.63;;;;;;;-0.05;80.28;99574.02;1706157;83;21626;-72
2022/11/18 08:28:42;;;;;;;23.97;17.07;;;;;;;-0.06;80.18;99577.00;1700405;83;21105;-72
2022/11/18 08:31:17;;;;;;;25.70;17.33;;;;;;;-0.05;80.02;99581.75;1706097;83;21009;-75
2022/11/18 08:33:44;;;;;;;24.87;17.60;;;;;;;-0.07;79.82;99582.18;1717964;82;21017;-72
2022/11/18 08:36:17;;;;;;;24.30;17.63;;;;;;;-0.08;79.48;99589.50;1677331;84;21203;-72
2022/11/18 08:38:44;;;;;;;30.43;20.37;;;;;;;-0.12;79.43;99591.66;1715433;82;21325;-72
2022/11/18 08:41:17;;;;;;;24.37;18.20;;;;;;;-0.12;79.33;99597.66;1714915;82;21620;-72
2022/11/18 08:43:44;;;;;;;25.10;18.17;;;;;;;-0.14;79.23;99601.11;1714983;82;21054;-72
2022/11/18 08:46:11;;;;;;;25.33;18.33;;;;;;;-0.18;79.22;99596.41;1714661;82;21042;-75
2022/11/18 08:48:38;;;;;;;24.53;17.80;;;;;;;-0.17;79.33;99601.12;1715106;82;21266;-72
2022/11/18 08:51:07;;;;;;;26.40;16.20;;;;;;;-0.17;79.21;99603.70;1715339;82;21044;-74
2022/11/18 08:53:34;;;;;;;22.17;16.97;;;;;;;-0.12;79.79;99608.40;1714880;82;21038;-71
2022/11/18 08:56:01;;;;;;;22.30;16.60;;;;;;;0.02;79.66;99598.00;1715088;82;21031;-71
2022/11/18 08:58:29;;;;;;;27.53;19.10;;;;;;;0.08;79.26;99606.53;1714801;82;21027;-72
2022/11/18 09:00:56;;;;;;;27.20;19.20;;;;;;;0.05;78.92;99605.27;1716435;82;21950;-71
2022/11/18 09:03:23;;;;;;;24.70;17.67;;;;;;;0.11;79.00;99597.52;1714931;82;21030;-73
2022/11/18 09:05:50;;;;;;;23.00;17.43;;;;;;;0.10;78.85;99605.25;1685132;84;21583;-74
2022/11/18 09:08:17;;;;;;;25.80;17.97;;;;;;;0.04;78.46;99613.88;1717280;82;21101;-76
2022/11/18 09:10:44;;;;;;;27.90;19.37;;;;;;;0.10;78.97;99612.98;1717493;82;21487;-76
2022/11/18 09:13:11;;;;;;;26.03;19.17;;;;;;;0.16;78.80;99611.20;1720310;82;21107;-77
2022/11/18 09:15:38;;;;;;;26.07;17.43;;;;;;;0.11;78.20;99610.41;1686650;84;21502;-76
2022/11/18 09:18:05;;;;;;;33.13;19.90;;;;;;;0.09;78.75;99616.43;1676040;84;21105;-77
2022/11/18 09:20:31;;;;;;;29.63;19.40;;;;;;;0.16;78.62;99612.92;1715097;82;22314;-79
2022/11/18 09:22:58;;;;;;;34.17;20.83;;;;;;;0.20;78.50;99618.05;1715171;82;21035;-79
2022/11/18 09:25:25;;;;;;;31.37;20.47;;;;;;;0.27;78.52;99621.42;1715041;82;21962;-78
2022/11/18 09:27:54;;;;;;;29.77;21.07;;;;;;;0.20;78.04;99616.77;1714867;82;21030;-77
2022/11/18 09:30:21;;;;;;;31.30;21.53;;;;;;;0.14;77.67;99626.25;1714826;82;21026;-78
2022/11/18 09:32:49;;;;;;;35.47;22.33;;;;;;;0.04;77.56;99626.76;1715359;82;21544;-78
2022/11/18 09:35:16;;;;;;;33.43;21.57;;;;;;;0.01;77.68;99624.20;1692835;82;21524;-83
2022/11/18 09:37:43;;;;;;;29.30;21.13;;;;;;;-0.05;77.55;99622.97;1718466;82;22112;-75
2022/11/18 09:40:17;;;;;;;29.47;20.30;;;;;;;-0.06;77.62;99630.25;1714910;82;21027;-74
2022/11/18 09:43:04;;;;;;;31.20;20.47;;;;;;;-0.05;77.70;99630.25;1714872;82;21078;-75
2022/11/18 09:45:39;;;;;;;31.07;20.03;;;;;;;-0.05;77.70;99619.95;1715042;82;21074;-76
2022/11/18 09:48:19;;;;;;;27.73;19.77;;;;;;;-0.09;77.50;99631.56;1674355;83;21076;-75
2022/11/18 09:50:46;;;;;;;32.25;21.50;;;;;;;-0.08;77.69;99634.58;1715536;82;21133;-73
2022/11/18 09:53:22;;;;;;;29.10;20.27;;;;;;;-0.04;77.74;99635.81;1714831;82;20943;-76
2022/11/18 09:55:51;;;;;;;27.93;19.10;;;;;;;-0.06;77.74;99637.98;1715323;82;21043;-75
2022/11/18 09:58:33;;;;;;;27.93;19.60;;;;;;;-0.07;77.78;99640.14;1714817;82;21544;-75
2022/11/18 10:01:02;;;;;;;31.97;20.43;;;;;;;-0.01;77.88;99634.51;1715288;82;21330;-79
2022/11/18 10:03:32;;;;;;;28.17;19.70;;;;;;;0.11;78.28;99634.88;1714770;82;21140;-76
2022/11/18 10:06:28;;;;;;;29.50;20.20;;;;;;;0.17;77.86;99637.84;1715228;82;21094;-76
2022/11/18 10:09:26;;;;;;;30.47;20.07;;;;;;;0.19;77.65;99641.25;1715026;82;21031;-76
2022/11/18 10:12:27;;;;;;;32.97;21.27;;;;;;;0.20;77.65;99641.25;1708275;82;21442;-77
2022/11/18 10:15:25;;;;;;;27.30;19.80;;;;;;;0.27;77.81;99638.62;1722572;82;20998;-76
2022/11/18 10:18:18;;;;;;;26.17;18.00;;;;;;;0.23;77.36;99637.80;1693508;84;21143;-76
2022/11/18 10:21:03;;;;;;;29.97;19.30;;;;;;;0.24;77.57;99643.80;1716988;83;20999;-76
2022/11/18 10:23:37;;;;;;;27.90;18.23;;;;;;;0.20;77.26;99646.41;1723634;83;21510;-76
2022/11/18 10:26:04;;;;;;;28.83;18.83;;;;;;;0.21;77.46;99642.09;1723580;83;21012;-76
2022/11/18 10:28:31;;;;;;;28.13;17.63;;;;;;;0.30;77.73;99650.19;1724169;83;21351;-76
2022/11/18 10:31:09;;;;;;;27.13;18.73;;;;;;;0.29;77.31;99648.05;1724053;83;21970;-76
2022/11/18 10:33:37;;;;;;;27.43;19.03;;;;;;;0.24;77.21;99645.09;1724258;83;20972;-76
2022/11/18 10:36:25;;;;;;;24.83;17.37;;;;;;;0.19;77.27;99645.99;1688068;83;21034;-76
2022/11/18 10:39:14;;;;;;;28.03;18.87;;;;;;;0.24;77.46;99648.95;1724538;82;21006;-76
2022/11/18 10:41:51;;;;;;;30.10;19.23;;;;;;;0.25;77.43;99657.09;1681112;84;21026;-76
2022/11/18 10:44:38;;;;;;;30.00;20.30;;;;;;;0.27;77.65;99653.64;1717422;82;21119;-76
2022/11/18 10:47:28;;;;;;;31.17;19.27;;;;;;;0.29;77.45;99638.19;1716914;82;21336;-76
2022/11/18 10:50:02;;;;;;;31.70;19.75;;;;;;;0.31;77.55;99641.61;1717625;82;28829;-76
2022/11/18 10:52:30;;;;;;;30.00;20.73;;;;;;;0.31;77.49;99638.59;1715882;82;21437;-76
2022/11/18 10:55:14;;;;;;;36.97;22.20;;;;;;;0.26;77.40;99647.23;1717390;82;21420;-76
2022/11/18 10:57:42;;;;;;;35.80;22.40;;;;;;;0.22;77.29;99645.09;1714166;82;21971;-78
2022/11/18 11:00:33;;;;;;;37.27;23.83;;;;;;;0.17;77.53;99650.30;1717309;82;21105;-76
2022/11/18 11:03:02;;;;;;;36.88;22.48;;;;;;;0.16;77.76;99649.00;1697179;83;21018;-78
2022/11/18 11:05:29;;;;;;;38.30;23.27;;;;;;;0.13;77.66;99658.05;1695732;83;21523;-76
2022/11/18 11:08:22;;;;;;;40.20;24.53;;;;;;;0.09;77.62;99659.80;1675683;84;21027;-76
2022/11/18 11:10:55;;;;;;;38.33;23.13;;;;;;;0.09;78.03;99657.66;1675824;84;21966;-76
2022/11/18 11:13:29;;;;;;;36.33;22.47;;;;;;;0.12;78.13;99662.34;1646239;86;21483;-76
2022/11/18 11:16:01;;;;;;;35.77;23.53;;;;;;;0.06;77.76;99653.81;1675992;84;21079;-76
2022/11/18 11:18:42;;;;;;;36.07;22.57;;;;;;;0.01;77.82;99662.85;1675594;84;21037;-77
2022/11/18 11:21:19;;;;;;;34.88;21.17;;;;;;;0.00;78.02;99661.16;1676122;84;21479;-76
2022/11/18 11:23:46;;;;;;;29.37;19.93;;;;;;;0.00;77.99;99663.73;1675370;84;21165;-76
2022/11/18 11:26:38;;;;;;;31.47;19.10;;;;;;;-0.06;77.86;99663.73;1675922;84;21066;-76
2022/11/18 11:29:19;;;;;;;27.90;19.00;;;;;;;-0.08;78.00;99661.19;1675054;84;21043;-76
2022/11/18 11:32:29;;;;;;;29.47;18.57;;;;;;;-0.11;78.05;99654.77;1647142;85;21026;-76
2022/11/18 11:35:08;;;;;;;30.72;18.17;;;;;;;-0.14;78.04;99661.23;1645269;86;21091;-76
2022/11/18 11:38:07;;;;;;;28.47;18.73;;;;;;;-0.13;78.18;99664.66;1675649;84;22206;-73
2022/11/18 11:40:40;;;;;;;28.23;17.85;;;;;;;-0.15;78.15;99665.09;1697351;83;21488;-77
2022/11/18 11:43:22;;;;;;;30.10;18.90;;;;;;;-0.20;78.11;99666.83;1716014;82;21489;-78
2022/11/18 11:46:15;;;;;;;31.50;19.23;;;;;;;-0.24;78.18;99668.13;1717824;82;21024;-77
2022/11/18 11:48:59;;;;;;;26.03;17.50;;;;;;;-0.25;78.30;99670.30;1717406;82;21003;-78
2022/11/18 11:51:41;;;;;;;24.67;16.30;;;;;;;-0.25;78.34;99661.69;1717771;82;21473;-77
2022/11/18 11:54:25;;;;;;;27.13;16.93;;;;;;;-0.29;78.19;99661.30;1716470;82;21010;-77
2022/11/18 11:57:09;;;;;;;24.80;16.17;;;;;;;-0.31;78.10;99661.28;1716687;82;21004;-78
2022/11/18 14:14:45;;;;;;;12.77;5.30;;;;;;;-0.14;75.72;99759.52;1837533;77;26678;-74
2022/11/18 14:17:20;;;;;;;13.40;6.30;;;;;;;-0.17;75.62;99751.80;1829504;78;20971;-74